Time;durP1;ratioP1;P1;durP2;ratioP2;P2;SDS_P1;SDS_P2;PMS_P1;PMS_P2;Temp;Humidity;BMP_temperature;BMP_pressure;BME280_temperature;BME280_humidity;BME280_pressure;Samples;Min_cycle;Max_cycle;Signal;HPM_P1;HPM_P2
2023/03/03 00:01:19;;;;;;;13.55;12.05;;;;;;;1.45;92.29;98866.09;4150001;28;20211;-48
2023/03/03 00:03:23;;;;;;;11.65;10.55;;;;;;;1.40;92.53;98863.09;4144181;28;20571;-48
2023/03/03 00:05:24;;;;;;;13.10;11.40;;;;;;;1.40;93.27;98873.91;4175337;28;20208;-47
2023/03/03 00:07:26;;;;;;;11.30;10.20;;;;;;;1.26;92.80;98863.94;4177053;28;20239;-48
2023/03/03 00:09:28;;;;;;;12.75;11.05;;;;;;;1.28;93.51;98867.25;4176156;28;20310;-48
2023/03/03 00:11:29;;;;;;;13.10;11.90;;;;;;;1.27;93.39;98868.28;4175202;28;20212;-47
2023/03/03 00:13:32;;;;;;;12.13;10.95;;;;;;;1.29;93.65;98860.84;4176553;28;20212;-48
2023/03/03 00:15:35;;;;;;;14.07;11.02;;;;;;;1.05;95.44;98854.84;4176484;28;20335;-48
2023/03/03 00:17:36;;;;;;;11.32;10.32;;;;;;;1.10;94.93;98866.78;4176637;28;20211;-47
2023/03/03 00:19:40;;;;;;;12.43;11.32;;;;;;;1.23;94.97;98861.63;4157958;28;20287;-49
2023/03/03 00:21:44;;;;;;;15.13;9.38;;;;;;;1.10;94.30;98865.94;4177744;28;20615;-47
2023/03/03 00:23:46;;;;;;;12.68;10.25;;;;;;;1.16;94.96;98867.91;4176415;28;20238;-47
2023/03/03 00:25:50;;;;;;;13.57;10.35;;;;;;;1.15;94.33;98872.44;4179533;28;20204;-48
2023/03/03 00:27:52;;;;;;;11.00;9.90;;;;;;;1.14;93.66;98868.06;4161024;28;20282;-50
2023/03/03 00:29:59;;;;;;;12.57;10.05;;;;;;;1.10;93.58;98874.03;4177899;28;20247;-47
2023/03/03 00:32:03;;;;;;;10.43;9.30;;;;;;;1.12;93.22;98869.28;4169086;28;20205;-47
2023/03/03 00:34:16;;;;;;;11.48;10.48;;;;;;;1.09;93.10;98875.88;4161231;28;20209;-48
2023/03/03 00:36:30;;;;;;;11.90;10.80;;;;;;;1.01;92.99;98881.31;4177166;28;20307;-47
2023/03/03 00:38:34;;;;;;;11.95;10.85;;;;;;;0.96;93.11;98883.75;4177345;28;20232;-48
2023/03/03 00:40:38;;;;;;;12.85;10.55;;;;;;;0.88;93.29;98883.78;4159861;28;20239;-47
2023/03/03 00:42:39;;;;;;;19.67;11.23;;;;;;;0.91;93.40;98878.06;4159752;28;20584;-48
2023/03/03 00:44:46;;;;;;;9.90;8.80;;;;;;;0.93;93.41;98880.53;4151937;28;20236;-48
2023/03/03 00:46:47;;;;;;;10.77;9.18;;;;;;;0.79;93.44;98878.63;4175088;28;20247;-47
2023/03/03 00:48:50;;;;;;;14.88;10.40;;;;;;;0.80;93.57;98881.16;4160203;28;20228;-48
2023/03/03 00:50:53;;;;;;;12.57;10.13;;;;;;;0.94;92.87;98880.38;4158248;28;20216;-47
2023/03/03 00:53:03;;;;;;;10.93;9.95;;;;;;;0.65;95.71;98865.97;4171621;28;20228;-48
2023/03/03 00:55:06;;;;;;;10.88;9.80;;;;;;;0.65;95.76;98877.56;4172870;28;20250;-47
2023/03/03 00:57:08;;;;;;;17.90;9.68;;;;;;;0.62;95.46;98875.22;4173300;28;20270;-48
2023/03/03 00:59:10;;;;;;;11.60;10.43;;;;;;;0.71;95.51;98887.63;4170644;28;20232;-48
2023/03/03 01:01:11;;;;;;;10.88;9.77;;;;;;;0.83;95.38;98883.50;4153101;28;20299;-47
2023/03/03 01:03:21;;;;;;;11.25;10.02;;;;;;;0.76;94.39;98890.63;4160332;28;20316;-49
2023/03/03 01:05:23;;;;;;;11.13;10.18;;;;;;;0.74;94.56;98883.75;4178051;28;20212;-48
2023/03/03 01:07:25;;;;;;;9.80;8.77;;;;;;;0.77;94.32;98889.63;4174136;28;20768;-48
2023/03/03 01:09:26;;;;;;;12.93;10.13;;;;;;;0.77;94.16;98881.53;4157683;28;20248;-48
2023/03/03 01:11:28;;;;;;;14.52;9.77;;;;;;;0.91;94.11;98878.06;4139703;28;20296;-48
2023/03/03 01:13:32;;;;;;;11.35;9.63;;;;;;;0.80;94.14;98881.16;4159138;28;20296;-47
2023/03/03 01:15:34;;;;;;;13.40;12.13;;;;;;;0.55;95.56;98885.03;4153184;28;20225;-47
2023/03/03 01:17:35;;;;;;;15.30;11.23;;;;;;;0.57;95.27;98885.72;4158938;28;20215;-48
2023/03/03 01:19:37;;;;;;;12.80;9.50;;;;;;;0.64;95.14;98880.44;4173663;28;20235;-47
2023/03/03 01:21:39;;;;;;;16.05;11.40;;;;;;;0.58;94.41;98873.94;4139545;28;20236;-47
2023/03/03 01:23:41;;;;;;;11.45;10.40;;;;;;;0.57;94.52;98883.03;4156018;28;20232;-48
2023/03/03 01:25:42;;;;;;;12.35;10.65;;;;;;;0.65;95.15;98896.44;4167189;28;20218;-48
2023/03/03 01:27:45;;;;;;;12.77;11.48;;;;;;;0.60;95.09;98879.97;4151048;28;20836;-49
2023/03/03 01:29:46;;;;;;;11.75;10.65;;;;;;;0.54;94.78;98891.44;4176633;28;20295;-48
2023/03/03 01:31:48;;;;;;;12.00;10.75;;;;;;;0.56;94.31;98892.09;4159685;28;20251;-48
2023/03/03 01:33:50;;;;;;;12.10;11.00;;;;;;;0.60;94.92;98888.03;4159666;28;21073;-48
2023/03/03 01:35:51;;;;;;;14.38;10.48;;;;;;;0.69;94.46;98888.81;4175054;28;20212;-48
2023/03/03 01:37:53;;;;;;;11.30;9.80;;;;;;;0.62;94.28;98887.88;4164304;28;20912;-47
2023/03/03 01:39:55;;;;;;;18.98;10.82;;;;;;;0.53;93.67;98892.47;4157542;28;20296;-49
2023/03/03 01:41:57;;;;;;;11.57;10.40;;;;;;;0.48;93.92;98892.16;4173675;28;20307;-48
2023/03/03 01:43:59;;;;;;;11.43;10.43;;;;;;;0.64;93.99;98886.69;4174098;28;20211;-48
2023/03/03 01:46:01;;;;;;;11.65;10.30;;;;;;;0.62;94.37;98877.91;4171612;28;20294;-48
2023/03/03 01:48:07;;;;;;;12.63;10.20;;;;;;;0.53;94.54;98879.00;4152626;28;20225;-49
2023/03/03 01:50:20;;;;;;;11.82;9.35;;;;;;;0.38;94.58;98875.41;4159567;28;20295;-48
2023/03/03 01:52:31;;;;;;;10.07;9.23;;;;;;;0.32;95.06;98881.50;4175506;28;20631;-47
2023/03/03 01:54:40;;;;;;;12.00;10.80;;;;;;;0.30;94.84;98871.91;4158307;28;20288;-47
2023/03/03 01:56:42;;;;;;;12.13;10.33;;;;;;;0.32;94.93;98881.50;4142482;28;20228;-47
2023/03/03 01:58:46;;;;;;;12.33;9.77;;;;;;;0.35;94.71;98877.63;4156377;28;20830;-47
2023/03/03 02:00:50;;;;;;;11.93;10.73;;;;;;;0.39;94.66;98879.75;4157128;28;20204;-47
2023/03/03 02:02:52;;;;;;;17.00;10.37;;;;;;;0.39;94.17;98876.22;4172214;28;20286;-48
2023/03/03 02:04:54;;;;;;;10.87;9.87;;;;;;;0.32;94.38;98875.25;4160854;28;20658;-47
2023/03/03 02:07:05;;;;;;;11.47;9.77;;;;;;;0.27;93.92;98878.47;4154719;28;20635;-48
2023/03/03 02:09:44;;;;;;;14.07;10.23;;;;;;;0.26;94.36;98871.44;4170954;28;20229;-47
2023/03/03 02:11:50;;;;;;;11.37;10.27;;;;;;;0.22;94.17;98864.72;4157578;28;20381;-47
2023/03/03 02:13:52;;;;;;;12.63;9.97;;;;;;;0.29;94.62;98865.69;4177245;28;20676;-48
2023/03/03 02:15:55;;;;;;;10.63;9.73;;;;;;;0.17;94.78;98867.13;4160586;28;20240;-47
2023/03/03 02:18:12;;;;;;;11.97;10.77;;;;;;;0.11;94.89;98865.13;4159529;28;20698;-47
2023/03/03 02:20:24;;;;;;;14.23;11.37;;;;;;;0.25;95.17;98866.22;4159489;28;20640;-47
2023/03/03 02:22:36;;;;;;;10.90;9.80;;;;;;;0.23;94.98;98869.09;4175719;28;20207;-48
2023/03/03 02:24:43;;;;;;;12.57;11.20;;;;;;;0.12;95.31;98872.19;4174689;28;20207;-47
2023/03/03 02:26:45;;;;;;;11.60;10.60;;;;;;;0.14;95.11;98872.84;4157407;28;20231;-48
2023/03/03 02:28:46;;;;;;;13.17;11.70;;;;;;;0.12;95.24;98880.25;4173804;28;20331;-47
2023/03/03 02:30:48;;;;;;;12.33;11.13;;;;;;;0.11;95.31;98878.59;4157443;28;20204;-50
2023/03/03 02:32:50;;;;;;;12.63;11.37;;;;;;;0.18;95.41;98873.31;4158217;28;20303;-47
2023/03/03 02:34:52;;;;;;;14.23;12.77;;;;;;;0.04;95.46;98883.00;4157804;28;20216;-48
2023/03/03 02:36:53;;;;;;;15.20;9.77;;;;;;;0.06;95.42;98875.56;4161623;28;20303;-48
2023/03/03 02:39:11;;;;;;;11.10;9.98;;;;;;;0.17;95.48;98868.97;4156578;28;20908;-48
2023/03/03 02:41:24;;;;;;;11.60;10.50;;;;;;;0.20;95.39;98872.13;4156328;28;20766;-49
2023/03/03 02:43:36;;;;;;;11.73;10.53;;;;;;;-0.02;95.95;98872.94;4157657;28;20316;-49
2023/03/03 02:45:42;;;;;;;12.30;11.20;;;;;;;0.04;96.17;98872.22;4172206;28;20637;-48
2023/03/03 02:47:50;;;;;;;21.60;11.00;;;;;;;-0.07;96.25;98880.66;4149731;28;20228;-47
2023/03/03 02:49:52;;;;;;;13.33;10.70;;;;;;;-0.09;95.59;98873.78;4157854;28;20227;-47
2023/03/03 02:51:54;;;;;;;11.23;9.63;;;;;;;0.01;96.15;98877.94;4158501;28;20248;-49
2023/03/03 02:53:56;;;;;;;12.17;9.97;;;;;;;0.06;95.77;98874.72;4159650;28;20686;-48
2023/03/03 02:55:57;;;;;;;11.90;10.67;;;;;;;-0.10;96.14;98866.75;4157972;28;20247;-47
2023/03/03 02:57:59;;;;;;;15.83;10.60;;;;;;;-0.18;95.87;98874.00;4158144;28;20271;-47
2023/03/03 03:00:01;;;;;;;14.83;10.93;;;;;;;-0.03;96.15;98871.25;4156677;28;20716;-47
2023/03/03 03:02:02;;;;;;;14.47;11.27;;;;;;;-0.19;96.59;98866.94;4158122;28;20295;-48
2023/03/03 03:04:12;;;;;;;11.33;10.13;;;;;;;-0.21;97.19;98871.66;4168449;28;20347;-47
2023/03/03 03:06:14;;;;;;;13.80;10.93;;;;;;;-0.23;97.19;98863.75;4158605;28;20681;-48
2023/03/03 03:08:15;;;;;;;11.17;10.17;;;;;;;-0.08;96.64;98866.56;4157776;28;20260;-47
2023/03/03 03:10:17;;;;;;;11.17;10.13;;;;;;;-0.18;96.29;98871.31;4174141;28;20234;-48
2023/03/03 03:12:20;;;;;;;14.77;10.60;;;;;;;-0.22;96.59;98876.19;4157710;28;20637;-48
2023/03/03 03:14:22;;;;;;;14.90;10.93;;;;;;;-0.07;96.50;98869.91;4157879;28;20657;-46
2023/03/03 03:16:24;;;;;;;14.07;10.20;;;;;;;-0.03;96.27;98865.03;4159231;28;20299;-47
2023/03/03 03:18:26;;;;;;;12.67;10.70;;;;;;;-0.17;96.64;98875.66;4142157;28;20225;-48
2023/03/03 03:20:28;;;;;;;11.40;10.37;;;;;;;-0.23;96.68;98873.66;4158512;28;20208;-48
2023/03/03 03:22:30;;;;;;;11.33;10.43;;;;;;;-0.23;96.55;98881.72;4173536;28;20274;-48
2023/03/03 03:24:31;;;;;;;11.67;10.50;;;;;;;-0.32;96.61;98874.72;4156862;28;20632;-48
2023/03/03 03:26:33;;;;;;;13.70;11.87;;;;;;;-0.18;96.92;98882.06;4158354;28;20829;-47
2023/03/03 03:28:35;;;;;;;12.37;11.17;;;;;;;-0.24;97.08;98872.84;4156518;28;20232;-48
2023/03/03 03:30:38;;;;;;;11.80;10.67;;;;;;;-0.30;97.01;98872.69;4173858;28;20212;-48
2023/03/03 03:32:39;;;;;;;13.30;12.03;;;;;;;-0.39;96.94;98868.34;4155885;28;20208;-47
2023/03/03 03:34:41;;;;;;;11.33;10.40;;;;;;;-0.33;97.01;98867.66;4157649;28;20197;-48
2023/03/03 03:36:45;;;;;;;12.90;11.60;;;;;;;-0.41;96.72;98865.00;4154801;28;20704;-47
2023/03/03 03:38:47;;;;;;;11.40;10.23;;;;;;;-0.46;96.76;98878.13;4158062;28;20316;-47
2023/03/03 03:40:49;;;;;;;11.37;9.97;;;;;;;-0.47;96.89;98876.44;4174786;28;20216;-47
2023/03/03 03:42:50;;;;;;;12.50;11.40;;;;;;;-0.50;96.90;98877.63;4157492;28;20225;-47
2023/03/03 03:44:52;;;;;;;13.93;12.67;;;;;;;-0.47;96.89;98884.50;4178060;28;20319;-49
2023/03/03 03:46:54;;;;;;;12.67;11.23;;;;;;;-0.54;96.66;98878.16;4161680;28;20727;-47
2023/03/03 03:48:55;;;;;;;13.27;12.03;;;;;;;-0.52;96.52;98881.50;4160369;28;20600;-47
2023/03/03 03:50:57;;;;;;;12.43;11.23;;;;;;;-0.51;96.69;98885.84;4175980;28;20311;-47
2023/03/03 03:52:59;;;;;;;16.77;11.80;;;;;;;-0.54;96.92;98886.22;4160185;28;20205;-48
2023/03/03 03:55:00;;;;;;;12.17;10.67;;;;;;;-0.43;96.76;98877.75;4176821;28;20295;-48
2023/03/03 03:57:05;;;;;;;11.73;10.67;;;;;;;-0.38;96.50;98876.25;4159333;28;20223;-47
2023/03/03 03:59:07;;;;;;;10.97;10.00;;;;;;;-0.52;96.67;98878.81;4174200;28;20255;-48
2023/03/03 04:01:09;;;;;;;11.40;10.40;;;;;;;-0.63;96.57;98873.78;4161935;28;20224;-48
2023/03/03 04:03:13;;;;;;;11.77;10.73;;;;;;;-0.60;97.11;98873.47;4162265;28;20987;-48
2023/03/03 04:05:15;;;;;;;12.07;11.00;;;;;;;-0.57;96.84;98873.94;4157978;28;20762;-48
2023/03/03 04:07:16;;;;;;;12.70;11.57;;;;;;;-0.59;96.95;98877.81;4175886;28;20298;-49
2023/03/03 04:09:18;;;;;;;12.27;11.10;;;;;;;-0.60;96.95;98882.34;4160033;28;20674;-47
2023/03/03 04:11:20;;;;;;;14.03;11.73;;;;;;;-0.64;96.51;98885.53;4164612;28;20615;-48
2023/03/03 04:13:22;;;;;;;10.83;9.40;;;;;;;-0.59;96.79;98889.41;4158754;28;20307;-48
2023/03/03 04:15:23;;;;;;;12.20;11.07;;;;;;;-0.67;96.59;98888.59;4160312;28;20295;-47
2023/03/03 04:17:25;;;;;;;16.47;10.87;;;;;;;-0.64;96.73;98890.91;4160701;28;20218;-47
2023/03/03 04:19:29;;;;;;;12.77;10.43;;;;;;;-0.69;96.59;98887.94;4178574;28;20338;-48
2023/03/03 04:21:31;;;;;;;16.70;12.97;;;;;;;-0.75;96.69;98889.41;4177492;28;20725;-48
2023/03/03 04:23:33;;;;;;;14.53;11.13;;;;;;;-0.79;96.42;98892.63;4159822;28;20208;-47
2023/03/03 04:25:34;;;;;;;17.90;10.83;;;;;;;-0.65;97.06;98883.88;4159758;28;20220;-47
2023/03/03 04:27:37;;;;;;;15.77;9.77;;;;;;;-0.78;96.27;98884.41;4159381;28;20220;-47
2023/03/03 04:29:38;;;;;;;13.70;11.70;;;;;;;-0.75;96.29;98881.38;4176976;28;20218;-48
2023/03/03 04:31:40;;;;;;;17.03;11.20;;;;;;;-0.80;96.71;98880.22;4161030;28;20212;-47
2023/03/03 04:33:42;;;;;;;13.57;12.37;;;;;;;-0.88;96.56;98890.97;4157926;28;20300;-48
2023/03/03 04:35:44;;;;;;;15.23;12.93;;;;;;;-0.90;96.46;98890.28;4159380;28;20295;-47
2023/03/03 04:37:46;;;;;;;12.17;11.07;;;;;;;-0.90;96.79;98890.28;4174269;28;20223;-47
2023/03/03 04:39:47;;;;;;;13.47;12.27;;;;;;;-0.85;96.54;98893.31;4175722;28;20220;-47
2023/03/03 04:41:49;;;;;;;14.23;12.80;;;;;;;-0.82;96.47;98895.66;4149802;28;20208;-47
2023/03/03 04:43:53;;;;;;;12.87;11.53;;;;;;;-0.83;95.98;98891.28;4154758;28;20247;-47
2023/03/03 04:45:55;;;;;;;13.53;12.00;;;;;;;-0.89;96.48;98894.66;4169528;28;20212;-48
2023/03/03 04:47:57;;;;;;;15.57;12.00;;;;;;;-0.85;96.32;98890.63;4136908;28;20258;-48
2023/03/03 04:49:59;;;;;;;13.47;11.90;;;;;;;-0.83;96.34;98896.66;4173145;28;20294;-47
2023/03/03 04:52:01;;;;;;;13.40;12.03;;;;;;;-0.96;96.47;98893.63;4156923;28;20215;-47
2023/03/03 04:54:03;;;;;;;11.40;10.37;;;;;;;-0.90;96.64;98896.50;4156347;28;20242;-47
2023/03/03 04:56:05;;;;;;;12.50;11.20;;;;;;;-0.95;96.84;98887.28;4158127;28;21217;-47
2023/03/03 04:58:09;;;;;;;11.67;10.60;;;;;;;-1.02;96.95;98891.66;4158434;28;20320;-48
2023/03/03 05:00:12;;;;;;;13.57;11.03;;;;;;;-1.02;96.93;98897.03;4157996;28;20251;-47
2023/03/03 05:02:16;;;;;;;15.90;12.67;;;;;;;-0.95;96.84;98904.22;4175762;28;20251;-48
2023/03/03 05:04:18;;;;;;;13.23;12.03;;;;;;;-0.90;96.59;98901.88;4158961;28;20208;-47
2023/03/03 05:06:20;;;;;;;9.67;8.83;;;;;;;-1.04;96.77;98901.69;4176515;28;20231;-47
2023/03/03 05:08:22;;;;;;;16.23;11.10;;;;;;;-1.12;97.00;98899.88;4157599;28;20232;-48
2023/03/03 05:10:24;;;;;;;13.10;11.73;;;;;;;-1.08;97.43;98903.88;4173351;28;20208;-47
2023/03/03 05:12:26;;;;;;;13.27;11.43;;;;;;;-1.14;97.25;98903.72;4161563;28;20205;-49
2023/03/03 05:14:27;;;;;;;13.27;11.97;;;;;;;-1.02;97.43;98903.22;4162237;28;20237;-48
2023/03/03 05:16:29;;;;;;;15.67;12.30;;;;;;;-0.96;97.28;98907.06;4158762;28;20295;-47
2023/03/03 05:18:31;;;;;;;12.90;11.60;;;;;;;-1.22;98.36;98909.09;4161365;28;20744;-48
2023/03/03 05:20:33;;;;;;;11.43;10.40;;;;;;;-1.26;98.94;98911.28;4158189;28;20220;-48
2023/03/03 05:22:34;;;;;;;13.50;11.17;;;;;;;-1.15;98.69;98913.59;4156111;28;20255;-48
2023/03/03 05:24:36;;;;;;;12.73;11.70;;;;;;;-1.11;98.20;98914.13;4140046;28;20212;-47
2023/03/03 05:26:39;;;;;;;11.60;9.77;;;;;;;-1.19;98.09;98912.28;4155198;28;20214;-48
2023/03/03 05:28:40;;;;;;;10.80;9.93;;;;;;;-1.25;97.77;98912.94;4172236;28;20223;-47
2023/03/03 05:30:42;;;;;;;11.60;10.47;;;;;;;-1.21;98.03;98908.09;4160947;28;20236;-47
2023/03/03 05:32:45;;;;;;;12.23;10.73;;;;;;;-1.18;97.88;98913.09;4159006;28;20208;-48
2023/03/03 05:34:47;;;;;;;10.87;9.67;;;;;;;-1.17;97.58;98910.25;4156895;28;20209;-48
2023/03/03 05:36:49;;;;;;;13.70;9.20;;;;;;;-1.29;97.14;98921.50;4173717;28;20318;-47
2023/03/03 05:38:50;;;;;;;12.00;10.77;;;;;;;-1.27;97.68;98914.94;4173321;28;20807;-47
2023/03/03 05:40:53;;;;;;;12.03;10.90;;;;;;;-1.25;97.47;98923.69;4174593;28;20848;-48
2023/03/03 05:42:55;;;;;;;14.60;10.80;;;;;;;-1.17;97.19;98922.81;4141130;28;20213;-49
2023/03/03 05:44:57;;;;;;;11.70;10.60;;;;;;;-1.27;97.25;98914.94;4162210;28;20208;-48
2023/03/03 05:46:59;;;;;;;11.47;10.40;;;;;;;-1.31;97.26;98928.84;4154469;28;20231;-47
2023/03/03 05:49:01;;;;;;;11.07;10.03;;;;;;;-1.35;97.19;98938.25;4171106;28;20615;-48
2023/03/03 05:51:03;;;;;;;15.10;11.40;;;;;;;-1.35;97.18;98939.09;4159974;28;20224;-48
2023/03/03 05:53:05;;;;;;;9.87;9.07;;;;;;;-1.35;97.32;98943.63;4175949;28;20207;-49
2023/03/03 05:55:07;;;;;;;13.67;12.37;;;;;;;-1.29;97.01;98948.34;4177026;28;20237;-48
2023/03/03 05:57:09;;;;;;;13.20;11.13;;;;;;;-1.38;96.76;98943.94;4158686;28;20204;-48
2023/03/03 05:59:14;;;;;;;12.30;11.10;;;;;;;-1.30;97.28;98946.63;4157778;28;20255;-48
2023/03/03 06:01:15;;;;;;;13.50;12.27;;;;;;;-1.44;97.19;98955.31;4173616;28;20663;-49
2023/03/03 06:03:20;;;;;;;14.03;12.73;;;;;;;-1.46;97.34;98957.34;4158134;28;20213;-47
2023/03/03 06:05:22;;;;;;;19.10;11.53;;;;;;;-1.49;97.33;98957.69;4173228;28;20645;-48
2023/03/03 06:07:23;;;;;;;13.27;9.83;;;;;;;-1.46;97.27;98957.34;4142116;28;20213;-48
2023/03/03 06:09:25;;;;;;;13.23;12.03;;;;;;;-1.52;97.27;98960.69;4157214;28;20918;-48
2023/03/03 06:11:27;;;;;;;12.60;11.33;;;;;;;-1.51;97.64;98962.34;4174923;28;20200;-48
2023/03/03 06:13:29;;;;;;;14.93;12.13;;;;;;;-1.39;96.99;98961.91;4173691;28;20204;-48
2023/03/03 06:15:33;;;;;;;12.57;11.37;;;;;;;-1.33;97.04;98965.75;4158308;28;20236;-48
2023/03/03 06:17:35;;;;;;;14.30;13.07;;;;;;;-1.36;97.12;98963.38;4156818;28;20213;-48
2023/03/03 06:19:37;;;;;;;12.80;11.63;;;;;;;-1.35;97.09;98965.09;4157665;28;20201;-48
2023/03/03 06:21:39;;;;;;;27.63;13.83;;;;;;;-1.44;97.17;98971.44;4175789;28;20211;-48
2023/03/03 06:23:41;;;;;;;19.00;12.03;;;;;;;-1.56;97.69;98970.91;4162333;28;20240;-47
2023/03/03 06:25:43;;;;;;;14.97;10.83;;;;;;;-1.59;97.91;98973.06;4159364;28;20258;-48
2023/03/03 06:27:45;;;;;;;15.87;10.73;;;;;;;-1.42;98.32;98974.81;4176453;28;20211;-47
2023/03/03 06:29:47;;;;;;;14.43;11.57;;;;;;;-1.86;100.00;98971.47;4175078;28;20224;-48
2023/03/03 06:31:51;;;;;;;13.37;11.97;;;;;;;-1.73;100.00;98971.00;4157926;28;20212;-48
2023/03/03 06:33:53;;;;;;;13.47;12.27;;;;;;;-1.67;100.00;98973.03;4175360;28;20689;-47
2023/03/03 06:35:55;;;;;;;11.03;10.10;;;;;;;-1.62;100.00;98968.03;4159160;28;20240;-47
2023/03/03 06:37:57;;;;;;;10.37;9.40;;;;;;;-1.60;100.00;98971.38;4158489;28;20263;-47
2023/03/03 06:39:59;;;;;;;11.33;10.17;;;;;;;-1.58;100.00;98964.00;4158703;28;20937;-48
2023/03/03 06:42:01;;;;;;;12.00;10.90;;;;;;;-1.54;100.00;98970.75;4173421;28;20208;-48
2023/03/03 06:44:03;;;;;;;12.13;9.43;;;;;;;-1.43;100.00;98978.47;4156045;28;20204;-48
2023/03/03 06:46:05;;;;;;;11.70;10.60;;;;;;;-1.38;99.93;98978.81;4161125;28;20292;-49
2023/03/03 06:48:06;;;;;;;11.90;10.67;;;;;;;-1.33;99.65;98980.00;4156371;28;20220;-48
2023/03/03 06:50:12;;;;;;;11.87;10.87;;;;;;;-1.25;99.43;98981.88;4152298;28;20227;-48
2023/03/03 06:52:18;;;;;;;12.10;10.80;;;;;;;-1.30;99.55;98978.84;4175457;28;20232;-51
2023/03/03 06:54:25;;;;;;;12.57;10.90;;;;;;;-1.28;99.45;98983.03;4173051;28;20701;-50
2023/03/03 06:56:34;;;;;;;11.17;10.07;;;;;;;-1.20;99.40;98984.91;4175643;28;20212;-49
2023/03/03 06:58:36;;;;;;;10.30;9.40;;;;;;;-1.21;99.28;98994.78;4157862;28;20228;-48
2023/03/03 07:00:37;;;;;;;11.10;10.00;;;;;;;-1.27;99.20;98991.94;4158431;28;20200;-48
2023/03/03 07:02:39;;;;;;;10.63;9.10;;;;;;;-1.25;99.29;99003.34;4156944;28;20205;-50
2023/03/03 07:04:41;;;;;;;10.47;9.53;;;;;;;-1.25;99.44;99008.72;4159740;28;20228;-47
2023/03/03 07:06:43;;;;;;;11.77;10.17;;;;;;;-1.24;99.82;99005.03;4142723;28;20205;-47
2023/03/03 07:08:44;;;;;;;11.37;10.27;;;;;;;-1.22;99.52;99003.03;4141617;28;20229;-47
2023/03/03 07:10:47;;;;;;;11.77;10.73;;;;;;;-1.06;99.93;99019.16;4173850;28;20557;-47
2023/03/03 07:12:48;;;;;;;17.03;10.77;;;;;;;-1.07;99.85;99022.84;4172875;28;20741;-47
2023/03/03 07:15:16;;;;;;;14.93;10.43;;;;;;;-1.10;99.70;99015.97;4141562;28;20263;-47
2023/03/03 07:17:19;;;;;;;11.47;10.27;;;;;;;-1.10;99.83;99018.66;4139450;28;20723;-49
2023/03/03 07:19:29;;;;;;;12.30;10.67;;;;;;;-1.12;100.00;99027.88;4160170;28;20311;-48
2023/03/03 07:21:36;;;;;;;14.83;13.40;;;;;;;-1.02;100.00;99017.84;4173762;28;20709;-48
2023/03/03 07:23:42;;;;;;;12.43;11.03;;;;;;;-1.01;100.00;99022.19;4174109;28;20208;-48
2023/03/03 07:25:45;;;;;;;13.97;12.30;;;;;;;-0.94;100.00;99028.59;4170857;28;20215;-48
2023/03/03 07:27:47;;;;;;;11.87;10.73;;;;;;;-0.93;100.00;99030.25;4177108;28;20199;-48
2023/03/03 07:29:50;;;;;;;13.30;8.87;;;;;;;-0.85;100.00;99027.59;4173975;28;20311;-48
2023/03/03 07:31:56;;;;;;;9.10;8.30;;;;;;;-0.78;100.00;99028.59;4157760;28;20674;-48
2023/03/03 07:33:59;;;;;;;15.80;8.63;;;;;;;-0.65;100.00;99029.81;4176028;28;21103;-49
2023/03/03 07:36:02;;;;;;;7.87;6.67;;;;;;;-0.64;100.00;99025.25;4162571;28;20196;-48
2023/03/03 07:38:34;;;;;;;8.37;7.63;;;;;;;-0.26;100.00;99025.44;4178001;28;20301;-48
2023/03/03 07:40:37;;;;;;;13.70;8.37;;;;;;;0.12;100.00;99027.34;4161781;28;20663;-48
2023/03/03 07:42:40;;;;;;;9.47;8.53;;;;;;;1.13;100.00;99028.06;4156010;28;20204;-49
2023/03/03 07:44:42;;;;;;;10.17;7.67;;;;;;;1.30;97.44;99039.59;4162695;28;20296;-48
2023/03/03 07:46:46;;;;;;;14.40;8.83;;;;;;;2.17;98.60;99035.28;4177038;28;20211;-48
2023/03/03 07:48:49;;;;;;;8.80;8.00;;;;;;;2.66;95.60;99046.41;4160673;28;20339;-48
2023/03/03 07:50:51;;;;;;;8.40;7.57;;;;;;;2.48;90.30;99041.34;4177998;28;20214;-49
2023/03/03 07:52:56;;;;;;;12.07;7.00;;;;;;;2.45;89.27;99041.72;4160754;28;20208;-50
2023/03/03 07:55:02;;;;;;;7.50;6.82;;;;;;;2.19;90.00;99038.63;4155413;28;20299;-49
2023/03/03 07:57:16;;;;;;;7.38;6.75;;;;;;;2.52;89.16;99042.66;4142639;28;20217;-49
2023/03/03 07:59:22;;;;;;;12.32;7.63;;;;;;;2.57;89.09;99042.94;4174292;28;20320;-48
2023/03/03 08:01:43;;;;;;;9.18;7.55;;;;;;;3.87;88.71;99040.91;4170859;28;20217;-49
2023/03/03 08:03:48;;;;;;;7.35;6.55;;;;;;;4.79;84.58;99045.94;4154371;28;20208;-49
2023/03/03 08:05:50;;;;;;;6.90;5.90;;;;;;;5.31;80.75;99047.00;4155297;28;20630;-48
2023/03/03 08:07:52;;;;;;;7.90;6.63;;;;;;;5.74;80.64;99040.19;4172694;28;20325;-49
2023/03/03 08:10:00;;;;;;;8.52;7.80;;;;;;;5.61;76.06;99043.72;4156784;28;20224;-48
2023/03/03 08:12:05;;;;;;;14.35;7.50;;;;;;;6.08;78.40;99040.06;4174979;28;21246;-48
2023/03/03 08:14:10;;;;;;;6.35;5.75;;;;;;;6.02;74.12;99040.91;4160665;28;20292;-49
2023/03/03 08:16:12;;;;;;;9.70;6.53;;;;;;;6.18;73.46;99040.47;4161340;28;20204;-48
2023/03/03 08:18:22;;;;;;;14.13;7.53;;;;;;;6.26;72.82;99053.84;4176011;28;20326;-48
2023/03/03 08:20:30;;;;;;;6.72;5.72;;;;;;;6.62;70.30;99048.78;4173197;28;20228;-48
2023/03/03 08:22:35;;;;;;;6.43;5.80;;;;;;;6.98;70.23;99049.09;4157169;28;20746;-49
2023/03/03 08:24:36;;;;;;;13.57;7.55;;;;;;;6.83;71.54;99056.69;4157899;28;20296;-48
2023/03/03 08:26:39;;;;;;;13.85;6.78;;;;;;;7.29;70.83;99051.94;4171027;28;20212;-48
2023/03/03 08:28:40;;;;;;;7.63;6.15;;;;;;;7.25;69.06;99048.81;4158020;28;20315;-47
2023/03/03 08:30:43;;;;;;;6.95;6.25;;;;;;;7.67;67.98;99055.47;4176141;28;20533;-48
2023/03/03 08:32:44;;;;;;;8.57;6.50;;;;;;;8.24;66.55;99052.63;4156262;28;20211;-49
2023/03/03 08:34:46;;;;;;;8.65;7.75;;;;;;;8.09;64.28;99055.63;4178107;28;20894;-48
2023/03/03 08:36:48;;;;;;;7.75;6.85;;;;;;;7.73;65.52;99060.06;4174951;28;20327;-49
2023/03/03 08:38:50;;;;;;;7.82;6.75;;;;;;;8.01;64.54;99060.53;4155655;28;20271;-48
2023/03/03 08:40:51;;;;;;;9.80;8.43;;;;;;;8.53;63.46;99057.38;4175446;28;20294;-49
2023/03/03 08:42:53;;;;;;;9.10;8.20;;;;;;;8.34;63.60;99067.41;4160805;28;20247;-49
2023/03/03 08:44:55;;;;;;;11.52;7.95;;;;;;;8.67;61.47;99065.22;4160285;28;20292;-48
2023/03/03 08:46:56;;;;;;;10.80;8.60;;;;;;;8.52;63.45;99066.63;4162288;28;20232;-48
2023/03/03 08:48:58;;;;;;;9.68;7.93;;;;;;;9.04;61.61;99066.09;4160200;28;20804;-48
2023/03/03 08:51:00;;;;;;;9.10;8.20;;;;;;;9.40;59.38;99071.53;4175673;28;20214;-48
2023/03/03 08:53:01;;;;;;;9.38;8.38;;;;;;;9.55;58.06;99066.53;4174129;28;20212;-48
2023/03/03 08:55:04;;;;;;;10.60;8.98;;;;;;;9.23;59.38;99070.50;4175074;28;20291;-49
2023/03/03 08:57:07;;;;;;;12.02;8.30;;;;;;;9.10;60.38;99070.66;4156600;28;20201;-49
2023/03/03 08:59:09;;;;;;;13.50;8.55;;;;;;;8.67;61.43;99069.84;4159921;28;20339;-48
2023/03/03 09:01:11;;;;;;;11.48;8.35;;;;;;;9.18;61.70;99073.94;4159921;28;20208;-49
2023/03/03 09:03:12;;;;;;;11.52;8.73;;;;;;;9.31;61.23;99073.78;4160617;28;20232;-48
2023/03/03 09:05:14;;;;;;;11.68;7.65;;;;;;;9.84;59.91;99074.75;4156456;28;20212;-48
2023/03/03 09:07:17;;;;;;;10.60;9.10;;;;;;;9.31;62.02;99068.31;4177173;28;20246;-48
2023/03/03 09:09:18;;;;;;;12.95;9.60;;;;;;;9.98;60.12;99076.22;4174421;28;20282;-48
2023/03/03 09:11:26;;;;;;;15.23;9.35;;;;;;;10.02;59.22;99071.13;4159275;28;20231;-49
2023/03/03 09:13:30;;;;;;;10.82;9.35;;;;;;;10.14;57.97;99069.31;4169444;28;20239;-49
2023/03/03 09:15:34;;;;;;;10.73;9.38;;;;;;;9.91;60.18;99069.19;4140896;28;20405;-49
2023/03/03 09:17:36;;;;;;;9.73;8.15;;;;;;;9.96;59.46;99072.88;4138048;28;20910;-49
2023/03/03 09:19:39;;;;;;;11.05;9.48;;;;;;;10.34;59.27;99069.84;4177259;28;20196;-49
2023/03/03 09:21:44;;;;;;;12.35;9.35;;;;;;;9.81;59.99;99063.47;4156737;28;20649;-49
2023/03/03 09:23:53;;;;;;;11.35;9.98;;;;;;;9.42;61.82;99069.44;4174865;28;20641;-49
2023/03/03 09:25:56;;;;;;;12.07;10.45;;;;;;;8.13;67.01;99072.38;4153133;28;20580;-48
2023/03/03 09:27:58;;;;;;;10.70;9.38;;;;;;;8.09;67.19;99065.69;4152187;28;20260;-49
2023/03/03 09:30:23;;;;;;;12.40;10.48;;;;;;;7.91;67.78;99061.00;4155288;28;20575;-48
2023/03/03 09:32:34;;;;;;;13.30;11.82;;;;;;;7.96;68.52;99087.59;4145861;28;20219;-48
2023/03/03 09:34:36;;;;;;;18.25;11.13;;;;;;;8.69;68.38;99082.19;4138731;28;20253;-48